sensor_id;sensor_type;location;lat;lon;timestamp;pressure;altitude;pressure_sealevel;temperature;humidity
16690;BME280;8458;52.220;9.884;2024-01-30T00:00:44;102031.69;;;6.64;88.03
16690;BME280;8458;52.220;9.884;2024-01-30T00:03:11;102037.25;;;6.71;87.84
16690;BME280;8458;52.220;9.884;2024-01-30T00:05:38;102033.00;;;6.69;87.29
16690;BME280;8458;52.220;9.884;2024-01-30T00:08:06;102038.50;;;6.69;86.34
16690;BME280;8458;52.220;9.884;2024-01-30T00:10:32;102030.63;;;6.66;85.59
16690;BME280;8458;52.220;9.884;2024-01-30T00:12:59;102028.72;;;6.59;84.65
16690;BME280;8458;52.220;9.884;2024-01-30T00:15:25;102032.91;;;6.49;84.11
16690;BME280;8458;52.220;9.884;2024-01-30T00:17:52;102025.66;;;6.41;83.83
16690;BME280;8458;52.220;9.884;2024-01-30T00:20:18;102024.78;;;6.34;83.88
16690;BME280;8458;52.220;9.884;2024-01-30T00:22:45;102025.84;;;6.33;84.03
16690;BME280;8458;52.220;9.884;2024-01-30T00:25:13;102025.19;;;6.31;83.68
16690;BME280;8458;52.220;9.884;2024-01-30T00:27:39;102021.38;;;6.32;84.12
16690;BME280;8458;52.220;9.884;2024-01-30T00:30:07;102020.91;;;6.21;84.22
16690;BME280;8458;52.220;9.884;2024-01-30T00:32:34;102023.66;;;6.21;84.43
16690;BME280;8458;52.220;9.884;2024-01-30T00:35:00;102028.06;;;6.16;84.43
16690;BME280;8458;52.220;9.884;2024-01-30T00:37:27;102030.13;;;6.07;84.15
16690;BME280;8458;52.220;9.884;2024-01-30T00:39:53;102029.28;;;6.06;84.08
16690;BME280;8458;52.220;9.884;2024-01-30T00:42:21;102030.53;;;6.04;84.21
16690;BME280;8458;52.220;9.884;2024-01-30T00:44:49;102025.03;;;6.04;83.88
16690;BME280;8458;52.220;9.884;2024-01-30T00:47:15;102025.81;;;5.98;84.03
16690;BME280;8458;52.220;9.884;2024-01-30T00:49:41;102016.66;;;5.90;84.21
16690;BME280;8458;52.220;9.884;2024-01-30T00:52:08;102022.81;;;5.92;84.30
16690;BME280;8458;52.220;9.884;2024-01-30T00:54:34;102018.09;;;5.86;84.02
16690;BME280;8458;52.220;9.884;2024-01-30T00:57:01;102015.91;;;5.75;84.25
16690;BME280;8458;52.220;9.884;2024-01-30T00:59:29;102013.56;;;5.72;84.53
16690;BME280;8458;52.220;9.884;2024-01-30T01:01:55;102016.25;;;5.65;84.71
16690;BME280;8458;52.220;9.884;2024-01-30T01:04:21;102024.84;;;5.55;84.73
16690;BME280;8458;52.220;9.884;2024-01-30T01:06:48;102023.00;;;5.63;84.20
16690;BME280;8458;52.220;9.884;2024-01-30T01:09:14;102036.09;;;5.61;84.44
16690;BME280;8458;52.220;9.884;2024-01-30T01:11:41;102034.41;;;5.60;84.13
16690;BME280;8458;52.220;9.884;2024-01-30T01:14:07;102033.53;;;5.59;84.26
16690;BME280;8458;52.220;9.884;2024-01-30T01:16:35;102034.88;;;5.63;85.50
16690;BME280;8458;52.220;9.884;2024-01-30T01:19:02;102034.91;;;5.70;86.89
16690;BME280;8458;52.220;9.884;2024-01-30T01:21:29;102036.09;;;5.61;87.68
16690;BME280;8458;52.220;9.884;2024-01-30T01:23:56;102024.69;;;5.64;87.78
16690;BME280;8458;52.220;9.884;2024-01-30T01:26:22;102020.91;;;5.65;87.50
16690;BME280;8458;52.220;9.884;2024-01-30T01:28:49;102024.06;;;5.62;87.11
16690;BME280;8458;52.220;9.884;2024-01-30T01:31:15;102023.41;;;5.60;87.53
16690;BME280;8458;52.220;9.884;2024-01-30T01:33:44;102027.25;;;5.65;87.10
16690;BME280;8458;52.220;9.884;2024-01-30T01:36:10;102021.94;;;5.64;87.10
16690;BME280;8458;52.220;9.884;2024-01-30T01:38:37;102026.00;;;5.68;87.28
16690;BME280;8458;52.220;9.884;2024-01-30T01:41:03;102023.00;;;5.63;87.06
16690;BME280;8458;52.220;9.884;2024-01-30T01:43:30;102028.53;;;5.63;86.75
16690;BME280;8458;52.220;9.884;2024-01-30T01:45:56;102027.19;;;5.59;86.79
16690;BME280;8458;52.220;9.884;2024-01-30T01:48:23;102027.59;;;5.55;86.93
16690;BME280;8458;52.220;9.884;2024-01-30T01:50:51;102022.16;;;5.62;87.67
16690;BME280;8458;52.220;9.884;2024-01-30T01:53:18;102017.56;;;5.69;88.70
16690;BME280;8458;52.220;9.884;2024-01-30T01:55:45;102011.66;;;5.72;88.98
16690;BME280;8458;52.220;9.884;2024-01-30T01:58:13;102013.78;;;5.77;89.09
16690;BME280;8458;52.220;9.884;2024-01-30T02:00:40;102010.84;;;5.79;88.40
16690;BME280;8458;52.220;9.884;2024-01-30T02:03:08;102011.69;;;5.79;87.94
16690;BME280;8458;52.220;9.884;2024-01-30T02:05:36;102004.09;;;5.81;87.16
16690;BME280;8458;52.220;9.884;2024-01-30T02:08:05;102009.59;;;5.81;87.26
16690;BME280;8458;52.220;9.884;2024-01-30T02:10:32;102000.28;;;5.82;86.74
16690;BME280;8458;52.220;9.884;2024-01-30T02:12:58;102009.84;;;5.86;87.19
16690;BME280;8458;52.220;9.884;2024-01-30T02:15:24;102001.59;;;5.86;88.03
16690;BME280;8458;52.220;9.884;2024-01-30T02:17:51;101990.16;;;5.89;88.64
16690;BME280;8458;52.220;9.884;2024-01-30T02:20:18;101986.78;;;5.87;89.68
16690;BME280;8458;52.220;9.884;2024-01-30T02:22:46;101985.69;;;5.88;90.77
16690;BME280;8458;52.220;9.884;2024-01-30T02:25:13;101986.78;;;5.87;91.16
16690;BME280;8458;52.220;9.884;2024-01-30T02:27:40;101986.44;;;5.97;91.25
16690;BME280;8458;52.220;9.884;2024-01-30T02:30:07;101974.81;;;6.02;91.29
16690;BME280;8458;52.220;9.884;2024-01-30T02:32:33;101982.25;;;6.01;90.79
16690;BME280;8458;52.220;9.884;2024-01-30T02:35:00;101966.56;;;6.02;90.28
16690;BME280;8458;52.220;9.884;2024-01-30T02:37:26;101972.91;;;6.02;89.75
16690;BME280;8458;52.220;9.884;2024-01-30T02:39:54;101967.34;;;5.96;90.24
16690;BME280;8458;52.220;9.884;2024-01-30T02:42:21;101971.81;;;5.97;91.05
16690;BME280;8458;52.220;9.884;2024-01-30T02:44:47;101969.50;;;6.00;91.31
16690;BME280;8458;52.220;9.884;2024-01-30T02:47:13;101958.09;;;6.03;91.25
16690;BME280;8458;52.220;9.884;2024-01-30T02:49:40;101971.00;;;6.03;91.76
16690;BME280;8458;52.220;9.884;2024-01-30T02:52:06;101962.56;;;6.11;91.83
16690;BME280;8458;52.220;9.884;2024-01-30T02:54:33;101966.63;;;6.15;92.14
16690;BME280;8458;52.220;9.884;2024-01-30T02:57:01;101956.88;;;6.19;91.76
16690;BME280;8458;52.220;9.884;2024-01-30T02:59:27;101959.63;;;6.19;91.86
16690;BME280;8458;52.220;9.884;2024-01-30T03:01:53;101958.19;;;6.23;91.33
16690;BME280;8458;52.220;9.884;2024-01-30T03:04:20;101953.09;;;6.20;91.31
16690;BME280;8458;52.220;9.884;2024-01-30T03:06:46;101950.53;;;6.19;91.34
16690;BME280;8458;52.220;9.884;2024-01-30T03:09:13;101945.88;;;6.19;91.18
16690;BME280;8458;52.220;9.884;2024-01-30T03:11:39;101945.47;;;6.22;90.60
16690;BME280;8458;52.220;9.884;2024-01-30T03:14:07;101940.78;;;6.16;90.17
16690;BME280;8458;52.220;9.884;2024-01-30T03:16:36;101940.97;;;6.15;89.90
16690;BME280;8458;52.220;9.884;2024-01-30T03:19:02;101943.53;;;6.16;89.48
16690;BME280;8458;52.220;9.884;2024-01-30T03:21:29;101939.09;;;6.15;89.55
16690;BME280;8458;52.220;9.884;2024-01-30T03:23:55;101937.19;;;6.16;89.95
16690;BME280;8458;52.220;9.884;2024-01-30T03:26:22;101940.75;;;6.09;90.53
16690;BME280;8458;52.220;9.884;2024-01-30T03:28:48;101931.66;;;6.09;91.57
16690;BME280;8458;52.220;9.884;2024-01-30T03:31:16;101924.44;;;6.15;91.83
16690;BME280;8458;52.220;9.884;2024-01-30T03:33:43;101926.38;;;6.21;91.55
16690;BME280;8458;52.220;9.884;2024-01-30T03:36:11;101926.19;;;6.22;91.53
16690;BME280;8458;52.220;9.884;2024-01-30T03:38:37;101933.63;;;6.28;91.32
16690;BME280;8458;52.220;9.884;2024-01-30T03:41:07;101931.53;;;6.31;90.81
16690;BME280;8458;52.220;9.884;2024-01-30T03:43:33;101924.31;;;6.30;90.87
16690;BME280;8458;52.220;9.884;2024-01-30T03:46:01;101938.31;;;6.35;90.68
16690;BME280;8458;52.220;9.884;2024-01-30T03:48:29;101924.94;;;6.32;91.20
16690;BME280;8458;52.220;9.884;2024-01-30T03:50:56;101927.69;;;6.32;91.46
16690;BME280;8458;52.220;9.884;2024-01-30T03:53:22;101925.59;;;6.34;92.06
16690;BME280;8458;52.220;9.884;2024-01-30T03:55:49;101920.50;;;6.31;92.52
16690;BME280;8458;52.220;9.884;2024-01-30T03:58:15;101923.47;;;6.36;92.56
16690;BME280;8458;52.220;9.884;2024-01-30T04:00:41;101924.13;;;6.38;92.41
16690;BME280;8458;52.220;9.884;2024-01-30T04:03:08;101922.44;;;6.37;92.54
16690;BME280;8458;52.220;9.884;2024-01-30T04:05:36;101924.13;;;6.38;92.90
16690;BME280;8458;52.220;9.884;2024-01-30T04:08:02;101922.66;;;6.35;92.80
16690;BME280;8458;52.220;9.884;2024-01-30T04:10:29;101918.84;;;6.43;92.73
16690;BME280;8458;52.220;9.884;2024-01-30T04:12:55;101926.72;;;6.46;92.53
16690;BME280;8458;52.220;9.884;2024-01-30T04:15:22;101914.19;;;6.50;92.01
16690;BME280;8458;52.220;9.884;2024-01-30T04:17:48;101920.38;;;6.52;91.83
16690;BME280;8458;52.220;9.884;2024-01-30T04:20:15;101918.03;;;6.62;91.23
16690;BME280;8458;52.220;9.884;2024-01-30T04:22:43;101920.16;;;6.67;91.00
16690;BME280;8458;52.220;9.884;2024-01-30T04:25:10;101917.63;;;6.72;90.19
16690;BME280;8458;52.220;9.884;2024-01-30T04:27:37;101925.06;;;6.72;89.90
16690;BME280;8458;52.220;9.884;2024-01-30T04:30:04;101923.59;;;6.76;89.46
16690;BME280;8458;52.220;9.884;2024-01-30T04:32:31;101926.13;;;6.77;89.43
16690;BME280;8458;52.220;9.884;2024-01-30T04:34:58;101928.69;;;6.79;89.22
16690;BME280;8458;52.220;9.884;2024-01-30T04:37:24;101918.50;;;6.79;88.75
16690;BME280;8458;52.220;9.884;2024-01-30T04:39:52;101924.84;;;6.73;88.91
16690;BME280;8458;52.220;9.884;2024-01-30T04:42:19;101928.03;;;6.63;89.28
16690;BME280;8458;52.220;9.884;2024-01-30T04:44:45;101923.97;;;6.66;89.42
16690;BME280;8458;52.220;9.884;2024-01-30T04:47:12;101924.44;;;6.70;89.18
16690;BME280;8458;52.220;9.884;2024-01-30T04:49:39;101935.25;;;6.78;89.25
16690;BME280;8458;52.220;9.884;2024-01-30T04:52:05;101929.94;;;6.76;89.14
16690;BME280;8458;52.220;9.884;2024-01-30T04:54:32;101928.91;;;6.77;88.91
16690;BME280;8458;52.220;9.884;2024-01-30T04:57:00;101924.00;;;6.73;88.96
16690;BME280;8458;52.220;9.884;2024-01-30T04:59:26;101924.63;;;6.75;89.08
16690;BME280;8458;52.220;9.884;2024-01-30T05:01:53;101924.63;;;6.75;89.39
16690;BME280;8458;52.220;9.884;2024-01-30T05:04:19;101926.09;;;6.71;89.13
16690;BME280;8458;52.220;9.884;2024-01-30T05:06:47;101927.81;;;6.65;89.72
16690;BME280;8458;52.220;9.884;2024-01-30T05:09:13;101932.03;;;6.68;89.79
16690;BME280;8458;52.220;9.884;2024-01-30T05:11:40;101922.72;;;6.69;90.01
16690;BME280;8458;52.220;9.884;2024-01-30T05:14:08;101930.56;;;6.72;89.88
16690;BME280;8458;52.220;9.884;2024-01-30T05:16:36;101923.13;;;6.72;89.75
16690;BME280;8458;52.220;9.884;2024-01-30T05:19:03;101918.09;;;6.76;89.55
16690;BME280;8458;52.220;9.884;2024-01-30T05:21:30;101917.66;;;6.79;89.12
16690;BME280;8458;52.220;9.884;2024-01-30T05:23:56;101916.59;;;6.80;89.29
16690;BME280;8458;52.220;9.884;2024-01-30T05:26:23;101923.19;;;6.79;89.17
16690;BME280;8458;52.220;9.884;2024-01-30T05:28:49;101924.22;;;6.85;89.37
16690;BME280;8458;52.220;9.884;2024-01-30T05:31:17;101918.50;;;6.86;89.24
16690;BME280;8458;52.220;9.884;2024-01-30T05:33:43;101914.69;;;6.87;88.92
16690;BME280;8458;52.220;9.884;2024-01-30T05:36:11;101917.25;;;6.95;88.84
16690;BME280;8458;52.220;9.884;2024-01-30T05:38:38;101916.41;;;6.88;89.07
16690;BME280;8458;52.220;9.884;2024-01-30T05:41:04;101915.56;;;6.94;88.91
16690;BME280;8458;52.220;9.884;2024-01-30T05:43:31;101918.53;;;6.93;88.70
16690;BME280;8458;52.220;9.884;2024-01-30T05:45:57;101917.69;;;6.99;88.65
16690;BME280;8458;52.220;9.884;2024-01-30T05:48:25;101918.94;;;6.96;88.64
16690;BME280;8458;52.220;9.884;2024-01-30T05:50:51;101922.13;;;6.93;88.81
16690;BME280;8458;52.220;9.884;2024-01-30T05:53:18;101925.50;;;6.95;88.63
16690;BME280;8458;52.220;9.884;2024-01-30T05:55:44;101924.03;;;6.99;88.25
16690;BME280;8458;52.220;9.884;2024-01-30T05:58:11;101920.88;;;7.03;88.24
16690;BME280;8458;52.220;9.884;2024-01-30T06:00:37;101921.06;;;6.94;88.23
16690;BME280;8458;52.220;9.884;2024-01-30T06:03:04;101920.22;;;6.94;88.15
16690;BME280;8458;52.220;9.884;2024-01-30T06:05:32;101912.78;;;6.88;88.35
16690;BME280;8458;52.220;9.884;2024-01-30T06:07:58;101927.00;;;6.91;88.10
16690;BME280;8458;52.220;9.884;2024-01-30T06:10:25;101925.72;;;6.87;87.60
16690;BME280;8458;52.220;9.884;2024-01-30T06:12:51;101926.16;;;6.84;87.74
16690;BME280;8458;52.220;9.884;2024-01-30T06:15:18;101924.44;;;6.83;87.83
16690;BME280;8458;52.220;9.884;2024-01-30T06:17:44;101921.47;;;6.78;88.05
16690;BME280;8458;52.220;9.884;2024-01-30T06:20:10;101928.91;;;6.77;88.18
16690;BME280;8458;52.220;9.884;2024-01-30T06:22:38;101921.47;;;6.78;88.29
16690;BME280;8458;52.220;9.884;2024-01-30T06:25:05;101924.22;;;6.78;88.00
16690;BME280;8458;52.220;9.884;2024-01-30T06:27:32;101920.84;;;6.76;88.19
16690;BME280;8458;52.220;9.884;2024-01-30T06:29:58;101917.88;;;6.77;87.42
16690;BME280;8458;52.220;9.884;2024-01-30T06:32:25;101921.88;;;6.75;87.10
16690;BME280;8458;52.220;9.884;2024-01-30T06:34:52;101918.47;;;6.66;86.21
16690;BME280;8458;52.220;9.884;2024-01-30T06:37:19;101906.16;;;6.55;86.42
16690;BME280;8458;52.220;9.884;2024-01-30T06:39:46;101897.25;;;6.53;86.29
16690;BME280;8458;52.220;9.884;2024-01-30T06:42:13;101903.59;;;6.47;86.10
16690;BME280;8458;52.220;9.884;2024-01-30T06:44:39;101898.50;;;6.44;86.21
16690;BME280;8458;52.220;9.884;2024-01-30T06:47:06;101894.06;;;6.43;86.75
16690;BME280;8458;52.220;9.884;2024-01-30T06:49:32;101900.19;;;6.45;86.63
16690;BME280;8458;52.220;9.884;2024-01-30T06:51:58;101891.31;;;6.43;86.57
16690;BME280;8458;52.220;9.884;2024-01-30T06:54:25;101890.22;;;6.37;86.82
16690;BME280;8458;52.220;9.884;2024-01-30T06:56:53;101897.63;;;6.37;87.38
16690;BME280;8458;52.220;9.884;2024-01-30T06:59:19;101898.06;;;6.40;87.86
16690;BME280;8458;52.220;9.884;2024-01-30T07:01:46;101895.09;;;6.42;87.51
16690;BME280;8458;52.220;9.884;2024-01-30T07:04:12;101895.94;;;6.36;87.90
16690;BME280;8458;52.220;9.884;2024-01-30T07:06:38;101895.09;;;6.42;87.87
16690;BME280;8458;52.220;9.884;2024-01-30T07:09:05;101878.78;;;6.40;87.45
16690;BME280;8458;52.220;9.884;2024-01-30T07:11:31;101884.72;;;6.44;87.69
16690;BME280;8458;52.220;9.884;2024-01-30T07:13:59;101889.59;;;6.42;87.30
16690;BME280;8458;52.220;9.884;2024-01-30T07:16:29;101890.44;;;6.42;86.83
16690;BME280;8458;52.220;9.884;2024-01-30T07:18:55;101890.63;;;6.41;86.61
16690;BME280;8458;52.220;9.884;2024-01-30T07:21:21;101892.97;;;6.37;86.34
16690;BME280;8458;52.220;9.884;2024-01-30T07:23:53;101901.44;;;6.29;85.66
16690;BME280;8458;52.220;9.884;2024-01-30T07:26:19;101898.88;;;6.27;85.96
16690;BME280;8458;52.220;9.884;2024-01-30T07:28:46;101896.53;;;6.24;85.73
16690;BME280;8458;52.220;9.884;2024-01-30T07:31:14;101898.44;;;6.24;85.75
16690;BME280;8458;52.220;9.884;2024-01-30T07:33:40;101901.38;;;6.22;85.75
16690;BME280;8458;52.220;9.884;2024-01-30T07:36:07;101896.94;;;6.21;85.67
16690;BME280;8458;52.220;9.884;2024-01-30T07:38:33;101892.91;;;6.17;85.55
16690;BME280;8458;52.220;9.884;2024-01-30T07:41:00;101890.75;;;6.13;85.32
16690;BME280;8458;52.220;9.884;2024-01-30T07:43:26;101892.84;;;6.04;85.20
16690;BME280;8458;52.220;9.884;2024-01-30T07:45:53;101892.16;;;5.95;85.33
16690;BME280;8458;52.220;9.884;2024-01-30T07:48:21;101899.53;;;5.95;85.57
16690;BME280;8458;52.220;9.884;2024-01-30T07:50:47;101891.47;;;5.93;85.92
16690;BME280;8458;52.220;9.884;2024-01-30T07:53:14;101896.78;;;5.95;85.66
16690;BME280;8458;52.220;9.884;2024-01-30T07:55:40;101894.44;;;5.91;86.10
16690;BME280;8458;52.220;9.884;2024-01-30T07:58:08;101887.00;;;5.85;86.24
16690;BME280;8458;52.220;9.884;2024-01-30T08:00:35;101901.84;;;5.84;86.96
16690;BME280;8458;52.220;9.884;2024-01-30T08:03:02;101902.88;;;5.83;87.07
16690;BME280;8458;52.220;9.884;2024-01-30T08:05:30;101898.00;;;5.85;87.05
16690;BME280;8458;52.220;9.884;2024-01-30T08:07:57;101900.13;;;5.83;87.37
16690;BME280;8458;52.220;9.884;2024-01-30T08:10:23;101901.16;;;5.82;88.02
16690;BME280;8458;52.220;9.884;2024-01-30T08:12:50;101896.97;;;5.86;88.35
16690;BME280;8458;52.220;9.884;2024-01-30T08:15:16;101901.66;;;5.92;89.00
16690;BME280;8458;52.220;9.884;2024-01-30T08:17:43;101904.66;;;5.98;89.09
16690;BME280;8458;52.220;9.884;2024-01-30T08:20:11;101894.97;;;6.02;89.58
16690;BME280;8458;52.220;9.884;2024-01-30T08:22:39;101895.38;;;6.05;89.71
16690;BME280;8458;52.220;9.884;2024-01-30T08:25:06;101889.94;;;6.12;89.39
16690;BME280;8458;52.220;9.884;2024-01-30T08:27:33;101882.72;;;6.11;89.86
16690;BME280;8458;52.220;9.884;2024-01-30T08:30:00;101892.28;;;6.15;90.24
16690;BME280;8458;52.220;9.884;2024-01-30T08:32:27;101888.69;;;6.21;89.64
16690;BME280;8458;52.220;9.884;2024-01-30T08:34:53;101882.75;;;6.24;89.71
16690;BME280;8458;52.220;9.884;2024-01-30T08:37:20;101877.69;;;6.28;89.85
16690;BME280;8458;52.220;9.884;2024-01-30T08:39:47;101878.53;;;6.28;89.56
16690;BME280;8458;52.220;9.884;2024-01-30T08:42:14;101879.81;;;6.33;89.79
16690;BME280;8458;52.220;9.884;2024-01-30T08:44:41;101888.06;;;6.33;90.05
16690;BME280;8458;52.220;9.884;2024-01-30T08:47:07;101880.22;;;6.30;90.09
16690;BME280;8458;52.220;9.884;2024-01-30T08:49:33;101882.16;;;6.36;90.03
16690;BME280;8458;52.220;9.884;2024-01-30T08:52:00;101888.28;;;6.38;90.48
16690;BME280;8458;52.220;9.884;2024-01-30T08:54:26;101885.34;;;6.39;90.90
16690;BME280;8458;52.220;9.884;2024-01-30T08:56:54;101881.13;;;6.50;91.52
16690;BME280;8458;52.220;9.884;2024-01-30T08:59:21;101884.97;;;6.56;91.90
16690;BME280;8458;52.220;9.884;2024-01-30T09:01:48;101883.72;;;6.58;91.77
16690;BME280;8458;52.220;9.884;2024-01-30T09:04:14;101882.00;;;6.71;91.57
16690;BME280;8458;52.220;9.884;2024-01-30T09:06:41;101887.97;;;6.74;91.72
16690;BME280;8458;52.220;9.884;2024-01-30T09:09:07;101893.25;;;6.89;91.56
16690;BME280;8458;52.220;9.884;2024-01-30T09:11:35;101894.34;;;6.95;91.42
16690;BME280;8458;52.220;9.884;2024-01-30T09:14:03;101884.38;;;7.00;92.26
16690;BME280;8458;52.220;9.884;2024-01-30T09:16:29;101880.31;;;7.03;92.24
16690;BME280;8458;52.220;9.884;2024-01-30T09:18:55;101891.16;;;7.11;92.18
16690;BME280;8458;52.220;9.884;2024-01-30T09:21:22;101884.78;;;7.11;92.21
16690;BME280;8458;52.220;9.884;2024-01-30T09:23:49;101879.50;;;7.16;91.99
16690;BME280;8458;52.220;9.884;2024-01-30T09:26:15;101882.47;;;7.21;91.93
16690;BME280;8458;52.220;9.884;2024-01-30T09:28:42;101879.06;;;7.26;91.90
16690;BME280;8458;52.220;9.884;2024-01-30T09:31:11;101879.28;;;7.24;92.12
16690;BME280;8458;52.220;9.884;2024-01-30T09:33:37;101876.50;;;7.31;92.44
16690;BME280;8458;52.220;9.884;2024-01-30T09:36:05;101883.69;;;7.39;92.15
16690;BME280;8458;52.220;9.884;2024-01-30T09:38:32;101881.16;;;7.44;92.32
16690;BME280;8458;52.220;9.884;2024-01-30T09:41:02;101879.69;;;7.41;92.50
16690;BME280;8458;52.220;9.884;2024-01-30T09:43:33;101872.66;;;7.52;92.54
16690;BME280;8458;52.220;9.884;2024-01-30T09:46:01;101864.56;;;7.57;92.37
16690;BME280;8458;52.220;9.884;2024-01-30T09:48:30;101863.06;;;7.61;91.84
16690;BME280;8458;52.220;9.884;2024-01-30T09:50:58;101869.44;;;7.68;91.78
16690;BME280;8458;52.220;9.884;2024-01-30T09:53:25;101867.03;;;7.79;90.95
16690;BME280;8458;52.220;9.884;2024-01-30T09:55:51;101860.22;;;7.88;89.88
16690;BME280;8458;52.220;9.884;2024-01-30T09:58:18;101872.09;;;7.95;89.49
16690;BME280;8458;52.220;9.884;2024-01-30T10:00:45;101872.91;;;8.02;89.32
16690;BME280;8458;52.220;9.884;2024-01-30T10:03:11;101873.72;;;8.10;89.28
16690;BME280;8458;52.220;9.884;2024-01-30T10:05:41;101882.19;;;8.15;89.15
16690;BME280;8458;52.220;9.884;2024-01-30T10:08:10;101874.13;;;8.20;88.52
16690;BME280;8458;52.220;9.884;2024-01-30T10:10:37;101875.34;;;8.24;87.81
16690;BME280;8458;52.220;9.884;2024-01-30T10:13:03;101882.63;;;8.18;88.31
16690;BME280;8458;52.220;9.884;2024-01-30T10:15:30;101871.09;;;8.28;88.11
16690;BME280;8458;52.220;9.884;2024-01-30T10:17:57;101867.06;;;8.24;89.01
16690;BME280;8458;52.220;9.884;2024-01-30T10:20:24;101869.59;;;8.32;88.80
16690;BME280;8458;52.220;9.884;2024-01-30T10:22:52;101859.78;;;8.36;88.47
16690;BME280;8458;52.220;9.884;2024-01-30T10:25:21;101867.63;;;8.39;88.55
16690;BME280;8458;52.220;9.884;2024-01-30T10:27:52;101866.31;;;8.49;87.96
16690;BME280;8458;52.220;9.884;2024-01-30T10:30:19;101855.03;;;8.57;87.35
16690;BME280;8458;52.220;9.884;2024-01-30T10:32:45;101849.22;;;8.65;86.74
16690;BME280;8458;52.220;9.884;2024-01-30T10:35:12;101846.59;;;8.70;86.39
16690;BME280;8458;52.220;9.884;2024-01-30T10:37:39;101850.63;;;8.74;86.03
16690;BME280;8458;52.220;9.884;2024-01-30T10:40:08;101843.97;;;8.82;85.80
16690;BME280;8458;52.220;9.884;2024-01-30T10:42:36;101851.16;;;8.90;85.85
16690;BME280;8458;52.220;9.884;2024-01-30T10:45:06;101849.88;;;8.92;85.83
16690;BME280;8458;52.220;9.884;2024-01-30T10:47:34;101844.72;;;8.96;86.26
16690;BME280;8458;52.220;9.884;2024-01-30T10:50:02;101841.66;;;9.04;85.82
16690;BME280;8458;52.220;9.884;2024-01-30T10:52:29;101835.06;;;9.05;84.84
16690;BME280;8458;52.220;9.884;2024-01-30T10:54:58;101833.69;;;9.14;85.00
16690;BME280;8458;52.220;9.884;2024-01-30T10:57:26;101827.84;;;9.23;85.10
16690;BME280;8458;52.220;9.884;2024-01-30T10:59:55;101832.94;;;9.26;85.29
16690;BME280;8458;52.220;9.884;2024-01-30T11:02:23;101831.19;;;9.31;85.37
16690;BME280;8458;52.220;9.884;2024-01-30T11:04:54;101832.19;;;9.37;84.16
16690;BME280;8458;52.220;9.884;2024-01-30T11:07:24;101822.97;;;9.43;84.03
16690;BME280;8458;52.220;9.884;2024-01-30T11:09:52;101823.38;;;9.47;83.91
16690;BME280;8458;52.220;9.884;2024-01-30T11:12:21;101819.28;;;9.49;83.67
16690;BME280;8458;52.220;9.884;2024-01-30T11:14:50;101820.75;;;9.52;83.09
16690;BME280;8458;52.220;9.884;2024-01-30T11:17:16;101818.19;;;9.50;83.15
16690;BME280;8458;52.220;9.884;2024-01-30T11:19:43;101821.13;;;9.56;82.40
16690;BME280;8458;52.220;9.884;2024-01-30T11:22:10;101828.34;;;9.57;82.18
16690;BME280;8458;52.220;9.884;2024-01-30T11:24:39;101837.69;;;9.62;81.40
16690;BME280;8458;52.220;9.884;2024-01-30T11:27:08;101825.59;;;9.57;81.55
16690;BME280;8458;52.220;9.884;2024-01-30T11:29:35;101823.66;;;9.57;81.93
16690;BME280;8458;52.220;9.884;2024-01-30T11:32:04;101823.59;;;9.64;81.90
16690;BME280;8458;52.220;9.884;2024-01-30T11:34:32;101821.06;;;9.62;82.74
16690;BME280;8458;52.220;9.884;2024-01-30T11:36:59;101807.44;;;9.61;83.52
16690;BME280;8458;52.220;9.884;2024-01-30T11:39:29;101816.28;;;9.69;83.62
16690;BME280;8458;52.220;9.884;2024-01-30T11:41:57;101806.66;;;9.72;83.08
16690;BME280;8458;52.220;9.884;2024-01-30T11:44:24;101810.66;;;9.76;83.04
16690;BME280;8458;52.220;9.884;2024-01-30T11:46:52;101813.44;;;9.76;82.36
16690;BME280;8458;52.220;9.884;2024-01-30T11:49:20;101808.88;;;9.82;81.28
16690;BME280;8458;52.220;9.884;2024-01-30T11:51:47;101809.28;;;9.85;80.81
16690;BME280;8458;52.220;9.884;2024-01-30T11:54:14;101797.31;;;9.85;80.93
16690;BME280;8458;52.220;9.884;2024-01-30T11:56:42;101806.28;;;9.87;80.30
16690;BME280;8458;52.220;9.884;2024-01-30T11:59:08;101802.63;;;9.86;80.29
16690;BME280;8458;52.220;9.884;2024-01-30T12:01:35;101796.63;;;9.90;80.23
16690;BME280;8458;52.220;9.884;2024-01-30T12:04:01;101794.31;;;9.86;80.28
16690;BME280;8458;52.220;9.884;2024-01-30T12:06:29;101802.16;;;9.90;80.16
16690;BME280;8458;52.220;9.884;2024-01-30T12:08:57;101792.41;;;9.87;80.30
16690;BME280;8458;52.220;9.884;2024-01-30T12:11:24;101791.72;;;9.92;80.43
16690;BME280;8458;52.220;9.884;2024-01-30T12:13:51;101790.78;;;9.98;80.25
16690;BME280;8458;52.220;9.884;2024-01-30T12:16:18;101779.69;;;9.98;80.53
16690;BME280;8458;52.220;9.884;2024-01-30T12:18:45;101781.09;;;9.89;80.51
16690;BME280;8458;52.220;9.884;2024-01-30T12:21:11;101780.25;;;9.88;81.08
16690;BME280;8458;52.220;9.884;2024-01-30T12:23:39;101785.72;;;9.95;81.02
16690;BME280;8458;52.220;9.884;2024-01-30T12:26:06;101782.72;;;9.96;80.37
16690;BME280;8458;52.220;9.884;2024-01-30T12:28:32;101786.91;;;9.99;80.52
16690;BME280;8458;52.220;9.884;2024-01-30T12:31:01;101777.44;;;10.07;80.25
16690;BME280;8458;52.220;9.884;2024-01-30T12:33:28;101779.50;;;10.11;80.52
16690;BME280;8458;52.220;9.884;2024-01-30T12:35:55;101780.84;;;10.20;80.44
16690;BME280;8458;52.220;9.884;2024-01-30T12:38:22;101791.63;;;10.29;80.49
16690;BME280;8458;52.220;9.884;2024-01-30T12:40:54;101794.09;;;10.37;80.62
16690;BME280;8458;52.220;9.884;2024-01-30T12:43:20;101787.59;;;10.43;80.74
16690;BME280;8458;52.220;9.884;2024-01-30T12:45:47;101788.81;;;10.47;80.81
16690;BME280;8458;52.220;9.884;2024-01-30T12:48:13;101791.97;;;10.51;80.68
16690;BME280;8458;52.220;9.884;2024-01-30T12:50:41;101793.41;;;10.53;80.46
16690;BME280;8458;52.220;9.884;2024-01-30T12:53:07;101798.47;;;10.56;80.18
16690;BME280;8458;52.220;9.884;2024-01-30T12:55:34;101798.00;;;10.59;80.03
16690;BME280;8458;52.220;9.884;2024-01-30T12:58:02;101794.13;;;10.61;79.89
16690;BME280;8458;52.220;9.884;2024-01-30T13:00:29;101788.00;;;10.58;79.80
16690;BME280;8458;52.220;9.884;2024-01-30T13:02:55;101794.75;;;10.63;79.35
16690;BME280;8458;52.220;9.884;2024-01-30T13:05:22;101800.88;;;10.53;79.66
16690;BME280;8458;52.220;9.884;2024-01-30T13:07:48;101791.72;;;10.52;79.96